sensor_id;sensor_type;location;lat;lon;timestamp;P1;durP1;ratioP1;P2;durP2;ratioP2
21860;SDS011;11095;48.066;8.540;2024-02-23T00:01:38;0.73;;;0.50;;
21860;SDS011;11095;48.066;8.540;2024-02-23T00:04:04;1.42;;;0.40;;
21860;SDS011;11095;48.066;8.540;2024-02-23T00:06:32;1.27;;;0.50;;
21860;SDS011;11095;48.066;8.540;2024-02-23T00:08:57;1.33;;;0.60;;
21860;SDS011;11095;48.066;8.540;2024-02-23T00:11:23;0.88;;;0.60;;
21860;SDS011;11095;48.066;8.540;2024-02-23T00:13:49;1.05;;;0.60;;
21860;SDS011;11095;48.066;8.540;2024-02-23T00:16:14;1.33;;;0.50;;
21860;SDS011;11095;48.066;8.540;2024-02-23T00:18:40;1.00;;;0.50;;
21860;SDS011;11095;48.066;8.540;2024-02-23T00:21:06;0.47;;;0.40;;
21860;SDS011;11095;48.066;8.540;2024-02-23T00:23:31;0.40;;;0.40;;
21860;SDS011;11095;48.066;8.540;2024-02-23T00:25:57;0.40;;;0.35;;
21860;SDS011;11095;48.066;8.540;2024-02-23T00:28:22;0.60;;;0.50;;
21860;SDS011;11095;48.066;8.540;2024-02-23T00:30:48;0.45;;;0.40;;
21860;SDS011;11095;48.066;8.540;2024-02-23T00:33:14;0.98;;;0.38;;
21860;SDS011;11095;48.066;8.540;2024-02-23T00:35:39;0.30;;;0.30;;
21860;SDS011;11095;48.066;8.540;2024-02-23T00:38:05;1.02;;;0.38;;
21860;SDS011;11095;48.066;8.540;2024-02-23T00:40:32;0.40;;;0.30;;
21860;SDS011;11095;48.066;8.540;2024-02-23T00:42:58;0.75;;;0.30;;
21860;SDS011;11095;48.066;8.540;2024-02-23T00:45:25;0.28;;;0.28;;
21860;SDS011;11095;48.066;8.540;2024-02-23T00:47:50;0.20;;;0.20;;
21860;SDS011;11095;48.066;8.540;2024-02-23T00:50:16;0.20;;;0.20;;
21860;SDS011;11095;48.066;8.540;2024-02-23T00:52:42;0.20;;;0.20;;
21860;SDS011;11095;48.066;8.540;2024-02-23T00:55:07;0.20;;;0.20;;
21860;SDS011;11095;48.066;8.540;2024-02-23T00:57:34;0.22;;;0.22;;
21860;SDS011;11095;48.066;8.540;2024-02-23T01:00:00;0.20;;;0.20;;
21860;SDS011;11095;48.066;8.540;2024-02-23T01:02:28;0.30;;;0.30;;
21860;SDS011;11095;48.066;8.540;2024-02-23T01:04:54;0.30;;;0.20;;
21860;SDS011;11095;48.066;8.540;2024-02-23T01:07:22;0.20;;;0.20;;
21860;SDS011;11095;48.066;8.540;2024-02-23T01:09:48;0.28;;;0.28;;
21860;SDS011;11095;48.066;8.540;2024-02-23T01:12:13;0.55;;;0.30;;
21860;SDS011;11095;48.066;8.540;2024-02-23T01:14:39;0.22;;;0.20;;
21860;SDS011;11095;48.066;8.540;2024-02-23T01:17:04;0.20;;;0.20;;
21860;SDS011;11095;48.066;8.540;2024-02-23T01:19:30;0.20;;;0.20;;
21860;SDS011;11095;48.066;8.540;2024-02-23T01:21:55;0.30;;;0.28;;
21860;SDS011;11095;48.066;8.540;2024-02-23T01:24:25;0.38;;;0.30;;
21860;SDS011;11095;48.066;8.540;2024-02-23T01:26:54;0.85;;;0.52;;
21860;SDS011;11095;48.066;8.540;2024-02-23T01:29:20;0.45;;;0.30;;
21860;SDS011;11095;48.066;8.540;2024-02-23T01:31:47;0.20;;;0.20;;
21860;SDS011;11095;48.066;8.540;2024-02-23T01:34:13;0.82;;;0.40;;
21860;SDS011;11095;48.066;8.540;2024-02-23T01:36:39;0.80;;;0.30;;
21860;SDS011;11095;48.066;8.540;2024-02-23T01:39:05;0.30;;;0.30;;
21860;SDS011;11095;48.066;8.540;2024-02-23T01:41:30;0.55;;;0.30;;
21860;SDS011;11095;48.066;8.540;2024-02-23T01:43:57;0.55;;;0.47;;
21860;SDS011;11095;48.066;8.540;2024-02-23T01:46:22;0.40;;;0.40;;
21860;SDS011;11095;48.066;8.540;2024-02-23T01:48:48;0.75;;;0.30;;
21860;SDS011;11095;48.066;8.540;2024-02-23T01:51:14;0.40;;;0.40;;
21860;SDS011;11095;48.066;8.540;2024-02-23T01:53:40;0.50;;;0.50;;
21860;SDS011;11095;48.066;8.540;2024-02-23T01:56:05;1.42;;;0.50;;
21860;SDS011;11095;48.066;8.540;2024-02-23T01:58:31;1.00;;;0.50;;
21860;SDS011;11095;48.066;8.540;2024-02-23T02:01:00;1.70;;;0.60;;
21860;SDS011;11095;48.066;8.540;2024-02-23T02:03:25;1.27;;;0.52;;
21860;SDS011;11095;48.066;8.540;2024-02-23T02:05:52;0.85;;;0.40;;
21860;SDS011;11095;48.066;8.540;2024-02-23T02:08:18;0.60;;;0.50;;
21860;SDS011;11095;48.066;8.540;2024-02-23T02:10:45;1.50;;;0.50;;
21860;SDS011;11095;48.066;8.540;2024-02-23T02:13:12;1.90;;;0.50;;
21860;SDS011;11095;48.066;8.540;2024-02-23T02:15:38;1.63;;;0.70;;
21860;SDS011;11095;48.066;8.540;2024-02-23T02:18:04;1.35;;;0.50;;
21860;SDS011;11095;48.066;8.540;2024-02-23T02:20:32;2.67;;;0.60;;
21860;SDS011;11095;48.066;8.540;2024-02-23T02:22:58;0.93;;;0.50;;
21860;SDS011;11095;48.066;8.540;2024-02-23T02:25:24;1.02;;;0.60;;
21860;SDS011;11095;48.066;8.540;2024-02-23T02:27:50;0.77;;;0.52;;
21860;SDS011;11095;48.066;8.540;2024-02-23T02:30:15;1.00;;;0.50;;
21860;SDS011;11095;48.066;8.540;2024-02-23T02:32:41;1.63;;;0.50;;
21860;SDS011;11095;48.066;8.540;2024-02-23T02:35:07;1.63;;;0.60;;
21860;SDS011;11095;48.066;8.540;2024-02-23T02:37:32;0.82;;;0.50;;
21860;SDS011;11095;48.066;8.540;2024-02-23T02:39:59;2.50;;;0.60;;
21860;SDS011;11095;48.066;8.540;2024-02-23T02:42:24;1.10;;;0.60;;
21860;SDS011;11095;48.066;8.540;2024-02-23T02:44:50;3.30;;;0.55;;
21860;SDS011;11095;48.066;8.540;2024-02-23T02:47:16;1.45;;;0.60;;
21860;SDS011;11095;48.066;8.540;2024-02-23T02:49:42;3.58;;;0.55;;
21860;SDS011;11095;48.066;8.540;2024-02-23T02:52:07;0.98;;;0.55;;
21860;SDS011;11095;48.066;8.540;2024-02-23T02:54:35;1.23;;;0.50;;
21860;SDS011;11095;48.066;8.540;2024-02-23T02:57:01;1.73;;;0.65;;
21860;SDS011;11095;48.066;8.540;2024-02-23T02:59:27;2.42;;;0.60;;
21860;SDS011;11095;48.066;8.540;2024-02-23T03:01:52;0.88;;;0.50;;
21860;SDS011;11095;48.066;8.540;2024-02-23T03:04:18;1.05;;;0.52;;
21860;SDS011;11095;48.066;8.540;2024-02-23T03:06:43;1.27;;;0.50;;
21860;SDS011;11095;48.066;8.540;2024-02-23T03:09:09;1.50;;;0.60;;
21860;SDS011;11095;48.066;8.540;2024-02-23T03:11:35;2.58;;;0.70;;
21860;SDS011;11095;48.066;8.540;2024-02-23T03:14:01;2.40;;;0.60;;
21860;SDS011;11095;48.066;8.540;2024-02-23T03:16:27;1.40;;;0.60;;
21860;SDS011;11095;48.066;8.540;2024-02-23T03:18:53;2.40;;;0.60;;
21860;SDS011;11095;48.066;8.540;2024-02-23T03:21:19;1.50;;;0.40;;
21860;SDS011;11095;48.066;8.540;2024-02-23T03:23:45;1.08;;;0.40;;
21860;SDS011;11095;48.066;8.540;2024-02-23T03:26:10;2.22;;;0.50;;
21860;SDS011;11095;48.066;8.540;2024-02-23T03:28:36;2.13;;;0.82;;
21860;SDS011;11095;48.066;8.540;2024-02-23T03:31:02;1.27;;;0.50;;
21860;SDS011;11095;48.066;8.540;2024-02-23T03:33:27;1.70;;;0.50;;
21860;SDS011;11095;48.066;8.540;2024-02-23T03:35:53;1.77;;;0.60;;
21860;SDS011;11095;48.066;8.540;2024-02-23T03:38:18;1.10;;;0.50;;
21860;SDS011;11095;48.066;8.540;2024-02-23T03:40:44;0.88;;;0.52;;
21860;SDS011;11095;48.066;8.540;2024-02-23T03:43:10;1.13;;;0.52;;
21860;SDS011;11095;48.066;8.540;2024-02-23T03:45:35;1.40;;;0.60;;
21860;SDS011;11095;48.066;8.540;2024-02-23T03:48:01;1.55;;;0.60;;
21860;SDS011;11095;48.066;8.540;2024-02-23T03:50:29;1.33;;;0.70;;
21860;SDS011;11095;48.066;8.540;2024-02-23T03:52:55;1.20;;;0.68;;
21860;SDS011;11095;48.066;8.540;2024-02-23T03:55:20;1.65;;;0.60;;
21860;SDS011;11095;48.066;8.540;2024-02-23T03:57:47;2.25;;;0.50;;
21860;SDS011;11095;48.066;8.540;2024-02-23T04:00:12;3.28;;;0.70;;
21860;SDS011;11095;48.066;8.540;2024-02-23T04:02:38;1.15;;;0.70;;
21860;SDS011;11095;48.066;8.540;2024-02-23T04:05:04;0.93;;;0.60;;
21860;SDS011;11095;48.066;8.540;2024-02-23T04:07:30;1.08;;;0.60;;
21860;SDS011;11095;48.066;8.540;2024-02-23T04:09:56;1.45;;;0.63;;
21860;SDS011;11095;48.066;8.540;2024-02-23T04:12:21;2.53;;;0.65;;
21860;SDS011;11095;48.066;8.540;2024-02-23T04:14:47;1.40;;;0.70;;
21860;SDS011;11095;48.066;8.540;2024-02-23T04:17:13;1.42;;;0.70;;
21860;SDS011;11095;48.066;8.540;2024-02-23T04:19:39;2.38;;;0.90;;
21860;SDS011;11095;48.066;8.540;2024-02-23T04:22:05;1.52;;;0.70;;
21860;SDS011;11095;48.066;8.540;2024-02-23T04:24:34;2.35;;;0.60;;
21860;SDS011;11095;48.066;8.540;2024-02-23T04:27:04;4.90;;;1.05;;
21860;SDS011;11095;48.066;8.540;2024-02-23T04:29:30;3.42;;;0.80;;
21860;SDS011;11095;48.066;8.540;2024-02-23T04:31:57;2.50;;;0.70;;
21860;SDS011;11095;48.066;8.540;2024-02-23T04:34:23;3.25;;;0.80;;
21860;SDS011;11095;48.066;8.540;2024-02-23T04:36:48;1.98;;;0.70;;
21860;SDS011;11095;48.066;8.540;2024-02-23T04:39:14;1.90;;;0.60;;
21860;SDS011;11095;48.066;8.540;2024-02-23T04:41:40;3.28;;;0.80;;
21860;SDS011;11095;48.066;8.540;2024-02-23T04:44:05;1.85;;;0.50;;
21860;SDS011;11095;48.066;8.540;2024-02-23T04:46:31;1.85;;;0.70;;
21860;SDS011;11095;48.066;8.540;2024-02-23T04:48:57;2.80;;;0.70;;
21860;SDS011;11095;48.066;8.540;2024-02-23T04:51:22;0.80;;;0.60;;
21860;SDS011;11095;48.066;8.540;2024-02-23T04:53:48;1.48;;;0.60;;
21860;SDS011;11095;48.066;8.540;2024-02-23T04:56:14;1.55;;;0.80;;
21860;SDS011;11095;48.066;8.540;2024-02-23T04:58:40;1.77;;;0.60;;
21860;SDS011;11095;48.066;8.540;2024-02-23T05:01:07;1.38;;;0.60;;
21860;SDS011;11095;48.066;8.540;2024-02-23T05:03:33;2.78;;;1.00;;
21860;SDS011;11095;48.066;8.540;2024-02-23T05:05:59;2.55;;;0.60;;
21860;SDS011;11095;48.066;8.540;2024-02-23T05:08:25;1.85;;;0.63;;
21860;SDS011;11095;48.066;8.540;2024-02-23T05:10:52;1.10;;;0.73;;
21860;SDS011;11095;48.066;8.540;2024-02-23T05:13:18;1.83;;;0.90;;
21860;SDS011;11095;48.066;8.540;2024-02-23T05:15:44;3.05;;;1.13;;
21860;SDS011;11095;48.066;8.540;2024-02-23T05:18:09;1.52;;;0.70;;
21860;SDS011;11095;48.066;8.540;2024-02-23T05:20:35;2.92;;;0.80;;
21860;SDS011;11095;48.066;8.540;2024-02-23T05:23:01;1.40;;;0.60;;
21860;SDS011;11095;48.066;8.540;2024-02-23T05:25:26;1.95;;;0.77;;
21860;SDS011;11095;48.066;8.540;2024-02-23T05:27:52;2.80;;;0.90;;
21860;SDS011;11095;48.066;8.540;2024-02-23T05:30:18;2.83;;;0.90;;
21860;SDS011;11095;48.066;8.540;2024-02-23T05:32:44;1.85;;;0.80;;
21860;SDS011;11095;48.066;8.540;2024-02-23T05:35:09;1.02;;;0.60;;
21860;SDS011;11095;48.066;8.540;2024-02-23T05:37:35;1.20;;;0.68;;
21860;SDS011;11095;48.066;8.540;2024-02-23T05:40:02;3.10;;;1.02;;
21860;SDS011;11095;48.066;8.540;2024-02-23T05:44:57;1.23;;;0.75;;
21860;SDS011;11095;48.066;8.540;2024-02-23T05:47:23;2.47;;;0.90;;
21860;SDS011;11095;48.066;8.540;2024-02-23T05:49:49;1.70;;;0.60;;
21860;SDS011;11095;48.066;8.540;2024-02-23T05:52:15;3.00;;;0.73;;
21860;SDS011;11095;48.066;8.540;2024-02-23T05:54:41;2.28;;;0.90;;
21860;SDS011;11095;48.066;8.540;2024-02-23T05:57:06;2.10;;;0.77;;
21860;SDS011;11095;48.066;8.540;2024-02-23T05:59:32;1.77;;;0.98;;
21860;SDS011;11095;48.066;8.540;2024-02-23T06:01:57;3.15;;;0.60;;
21860;SDS011;11095;48.066;8.540;2024-02-23T06:04:23;2.85;;;0.75;;
21860;SDS011;11095;48.066;8.540;2024-02-23T06:06:49;1.02;;;0.50;;
21860;SDS011;11095;48.066;8.540;2024-02-23T06:09:15;2.25;;;0.60;;
21860;SDS011;11095;48.066;8.540;2024-02-23T06:11:40;2.35;;;0.80;;
21860;SDS011;11095;48.066;8.540;2024-02-23T06:14:07;3.25;;;0.80;;
21860;SDS011;11095;48.066;8.540;2024-02-23T06:16:33;4.82;;;0.90;;
21860;SDS011;11095;48.066;8.540;2024-02-23T06:18:58;2.17;;;0.88;;
21860;SDS011;11095;48.066;8.540;2024-02-23T06:21:24;2.95;;;1.13;;
21860;SDS011;11095;48.066;8.540;2024-02-23T06:23:50;1.83;;;0.90;;
21860;SDS011;11095;48.066;8.540;2024-02-23T06:26:15;3.63;;;0.85;;
21860;SDS011;11095;48.066;8.540;2024-02-23T06:28:41;2.35;;;1.00;;
21860;SDS011;11095;48.066;8.540;2024-02-23T06:31:07;3.25;;;0.80;;
21860;SDS011;11095;48.066;8.540;2024-02-23T06:33:33;4.82;;;0.90;;
21860;SDS011;11095;48.066;8.540;2024-02-23T06:35:59;1.55;;;0.70;;
21860;SDS011;11095;48.066;8.540;2024-02-23T06:38:25;2.30;;;0.90;;
21860;SDS011;11095;48.066;8.540;2024-02-23T06:40:51;1.38;;;0.70;;
21860;SDS011;11095;48.066;8.540;2024-02-23T06:43:17;2.33;;;0.70;;
21860;SDS011;11095;48.066;8.540;2024-02-23T06:45:43;2.55;;;0.90;;
21860;SDS011;11095;48.066;8.540;2024-02-23T06:48:09;2.15;;;0.80;;
21860;SDS011;11095;48.066;8.540;2024-02-23T06:50:35;3.72;;;1.10;;
21860;SDS011;11095;48.066;8.540;2024-02-23T06:53:00;2.03;;;0.90;;
21860;SDS011;11095;48.066;8.540;2024-02-23T06:55:27;3.67;;;0.93;;
21860;SDS011;11095;48.066;8.540;2024-02-23T06:57:53;1.33;;;0.70;;
21860;SDS011;11095;48.066;8.540;2024-02-23T07:00:20;1.98;;;0.90;;
21860;SDS011;11095;48.066;8.540;2024-02-23T07:02:46;1.80;;;0.80;;
21860;SDS011;11095;48.066;8.540;2024-02-23T07:05:12;4.20;;;0.90;;
21860;SDS011;11095;48.066;8.540;2024-02-23T07:07:39;2.08;;;0.82;;
21860;SDS011;11095;48.066;8.540;2024-02-23T07:10:05;2.85;;;0.82;;
21860;SDS011;11095;48.066;8.540;2024-02-23T07:12:32;2.05;;;0.80;;
21860;SDS011;11095;48.066;8.540;2024-02-23T07:14:57;2.65;;;0.63;;
21860;SDS011;11095;48.066;8.540;2024-02-23T07:17:23;2.22;;;0.60;;
21860;SDS011;11095;48.066;8.540;2024-02-23T07:19:49;2.40;;;0.60;;
21860;SDS011;11095;48.066;8.540;2024-02-23T07:22:15;4.05;;;1.02;;
21860;SDS011;11095;48.066;8.540;2024-02-23T07:24:43;1.95;;;0.90;;
21860;SDS011;11095;48.066;8.540;2024-02-23T07:27:09;2.72;;;1.05;;
21860;SDS011;11095;48.066;8.540;2024-02-23T07:29:34;2.75;;;1.25;;
21860;SDS011;11095;48.066;8.540;2024-02-23T07:32:00;2.28;;;1.10;;
21860;SDS011;11095;48.066;8.540;2024-02-23T07:34:26;1.80;;;1.02;;
21860;SDS011;11095;48.066;8.540;2024-02-23T07:36:52;2.75;;;1.00;;
21860;SDS011;11095;48.066;8.540;2024-02-23T07:39:18;1.95;;;1.00;;
21860;SDS011;11095;48.066;8.540;2024-02-23T07:41:44;2.53;;;0.90;;
21860;SDS011;11095;48.066;8.540;2024-02-23T07:44:10;3.53;;;1.02;;
21860;SDS011;11095;48.066;8.540;2024-02-23T07:46:36;1.83;;;1.10;;
21860;SDS011;11095;48.066;8.540;2024-02-23T07:49:02;2.15;;;1.20;;
21860;SDS011;11095;48.066;8.540;2024-02-23T07:51:28;2.75;;;1.08;;
21860;SDS011;11095;48.066;8.540;2024-02-23T07:53:53;5.22;;;1.10;;
21860;SDS011;11095;48.066;8.540;2024-02-23T07:56:20;2.63;;;1.10;;
21860;SDS011;11095;48.066;8.540;2024-02-23T07:58:45;2.53;;;1.00;;
21860;SDS011;11095;48.066;8.540;2024-02-23T08:01:11;4.03;;;1.10;;
21860;SDS011;11095;48.066;8.540;2024-02-23T08:03:39;2.90;;;1.10;;
21860;SDS011;11095;48.066;8.540;2024-02-23T08:06:05;2.45;;;1.00;;
21860;SDS011;11095;48.066;8.540;2024-02-23T08:08:31;4.93;;;1.45;;
21860;SDS011;11095;48.066;8.540;2024-02-23T08:10:59;5.00;;;1.73;;
21860;SDS011;11095;48.066;8.540;2024-02-23T08:13:26;5.53;;;1.35;;
21860;SDS011;11095;48.066;8.540;2024-02-23T08:15:52;5.88;;;1.27;;
21860;SDS011;11095;48.066;8.540;2024-02-23T08:18:17;4.50;;;1.05;;
21860;SDS011;11095;48.066;8.540;2024-02-23T08:20:43;3.80;;;1.02;;
21860;SDS011;11095;48.066;8.540;2024-02-23T08:23:08;4.40;;;0.90;;
21860;SDS011;11095;48.066;8.540;2024-02-23T08:25:34;1.42;;;0.80;;
21860;SDS011;11095;48.066;8.540;2024-02-23T08:28:00;3.42;;;0.80;;
21860;SDS011;11095;48.066;8.540;2024-02-23T08:30:26;2.10;;;0.98;;
21860;SDS011;11095;48.066;8.540;2024-02-23T08:32:52;3.50;;;1.40;;
21860;SDS011;11095;48.066;8.540;2024-02-23T08:35:17;3.47;;;1.90;;
21860;SDS011;11095;48.066;8.540;2024-02-23T08:37:43;4.65;;;2.10;;
21860;SDS011;11095;48.066;8.540;2024-02-23T08:40:09;4.20;;;1.83;;
21860;SDS011;11095;48.066;8.540;2024-02-23T08:42:35;6.00;;;2.45;;
21860;SDS011;11095;48.066;8.540;2024-02-23T08:45:00;3.90;;;1.55;;
21860;SDS011;11095;48.066;8.540;2024-02-23T08:47:27;5.30;;;0.90;;
21860;SDS011;11095;48.066;8.540;2024-02-23T08:52:22;3.08;;;0.80;;
21860;SDS011;11095;48.066;8.540;2024-02-23T08:54:48;2.22;;;0.70;;
21860;SDS011;11095;48.066;8.540;2024-02-23T08:57:13;2.85;;;0.80;;
21860;SDS011;11095;48.066;8.540;2024-02-23T08:59:42;2.03;;;0.90;;
21860;SDS011;11095;48.066;8.540;2024-02-23T09:02:08;4.30;;;1.13;;
21860;SDS011;11095;48.066;8.540;2024-02-23T09:04:35;1.92;;;0.88;;
21860;SDS011;11095;48.066;8.540;2024-02-23T09:07:01;3.30;;;0.85;;
21860;SDS011;11095;48.066;8.540;2024-02-23T09:09:26;4.55;;;0.95;;
21860;SDS011;11095;48.066;8.540;2024-02-23T09:11:52;3.35;;;1.02;;
21860;SDS011;11095;48.066;8.540;2024-02-23T09:14:18;2.60;;;0.90;;
21860;SDS011;11095;48.066;8.540;2024-02-23T09:16:43;2.75;;;0.90;;
21860;SDS011;11095;48.066;8.540;2024-02-23T09:19:11;2.45;;;0.70;;
21860;SDS011;11095;48.066;8.540;2024-02-23T09:21:37;2.05;;;0.93;;
21860;SDS011;11095;48.066;8.540;2024-02-23T09:24:02;3.28;;;1.00;;
21860;SDS011;11095;48.066;8.540;2024-02-23T09:26:29;3.10;;;0.90;;
21860;SDS011;11095;48.066;8.540;2024-02-23T09:28:54;2.80;;;0.88;;
21860;SDS011;11095;48.066;8.540;2024-02-23T09:31:20;3.65;;;1.10;;
21860;SDS011;11095;48.066;8.540;2024-02-23T09:33:46;4.50;;;1.00;;
21860;SDS011;11095;48.066;8.540;2024-02-23T09:36:13;3.38;;;0.90;;
21860;SDS011;11095;48.066;8.540;2024-02-23T09:38:39;5.00;;;1.20;;
21860;SDS011;11095;48.066;8.540;2024-02-23T09:41:05;6.72;;;1.58;;
21860;SDS011;11095;48.066;8.540;2024-02-23T09:43:44;3.72;;;1.20;;
21860;SDS011;11095;48.066;8.540;2024-02-23T09:46:11;5.40;;;1.58;;
21860;SDS011;11095;48.066;8.540;2024-02-23T09:48:37;3.72;;;1.08;;
21860;SDS011;11095;48.066;8.540;2024-02-23T09:51:06;3.95;;;1.35;;
21860;SDS011;11095;48.066;8.540;2024-02-23T09:53:35;5.65;;;1.50;;
21860;SDS011;11095;48.066;8.540;2024-02-23T09:56:03;3.28;;;1.38;;
21860;SDS011;11095;48.066;8.540;2024-02-23T09:58:36;7.32;;;1.40;;
21860;SDS011;11095;48.066;8.540;2024-02-23T10:01:03;1.52;;;0.75;;
21860;SDS011;11095;48.066;8.540;2024-02-23T10:03:29;8.25;;;1.50;;
21860;SDS011;11095;48.066;8.540;2024-02-23T10:05:58;6.20;;;1.67;;
21860;SDS011;11095;48.066;8.540;2024-02-23T10:08:27;2.95;;;1.10;;
21860;SDS011;11095;48.066;8.540;2024-02-23T10:10:54;5.85;;;1.38;;
21860;SDS011;11095;48.066;8.540;2024-02-23T10:13:21;4.80;;;1.27;;
21860;SDS011;11095;48.066;8.540;2024-02-23T10:15:49;5.13;;;1.33;;
21860;SDS011;11095;48.066;8.540;2024-02-23T10:18:20;4.28;;;1.20;;
21860;SDS011;11095;48.066;8.540;2024-02-23T10:20:46;8.57;;;1.20;;
21860;SDS011;11095;48.066;8.540;2024-02-23T10:23:12;4.85;;;1.23;;
21860;SDS011;11095;48.066;8.540;2024-02-23T10:25:38;3.85;;;1.02;;
21860;SDS011;11095;48.066;8.540;2024-02-23T10:28:07;3.88;;;1.35;;
21860;SDS011;11095;48.066;8.540;2024-02-23T10:33:01;7.57;;;1.27;;
21860;SDS011;11095;48.066;8.540;2024-02-23T10:35:28;4.45;;;1.40;;
21860;SDS011;11095;48.066;8.540;2024-02-23T10:37:56;4.50;;;0.90;;
21860;SDS011;11095;48.066;8.540;2024-02-23T10:40:22;3.75;;;1.00;;
21860;SDS011;11095;48.066;8.540;2024-02-23T10:42:48;4.63;;;1.00;;
21860;SDS011;11095;48.066;8.540;2024-02-23T10:45:20;3.10;;;1.00;;
21860;SDS011;11095;48.066;8.540;2024-02-23T10:47:53;4.88;;;1.23;;
21860;SDS011;11095;48.066;8.540;2024-02-23T10:50:20;5.68;;;1.02;;
21860;SDS011;11095;48.066;8.540;2024-02-23T10:52:48;5.72;;;1.40;;
21860;SDS011;11095;48.066;8.540;2024-02-23T10:55:15;6.32;;;1.60;;
21860;SDS011;11095;48.066;8.540;2024-02-23T10:57:41;5.65;;;1.30;;
21860;SDS011;11095;48.066;8.540;2024-02-23T11:00:08;4.47;;;1.10;;
21860;SDS011;11095;48.066;8.540;2024-02-23T11:02:41;7.15;;;1.20;;
21860;SDS011;11095;48.066;8.540;2024-02-23T11:05:11;5.95;;;1.40;;
21860;SDS011;11095;48.066;8.540;2024-02-23T11:07:39;5.20;;;1.33;;
21860;SDS011;11095;48.066;8.540;2024-02-23T11:10:05;3.20;;;1.00;;
21860;SDS011;11095;48.066;8.540;2024-02-23T11:12:31;4.75;;;1.83;;
21860;SDS011;11095;48.066;8.540;2024-02-23T11:14:59;6.53;;;1.77;;
21860;SDS011;11095;48.066;8.540;2024-02-23T11:17:31;4.82;;;1.27;;
21860;SDS011;11095;48.066;8.540;2024-02-23T11:19:58;2.92;;;1.30;;
21860;SDS011;11095;48.066;8.540;2024-02-23T11:22:31;2.83;;;1.30;;
21860;SDS011;11095;48.066;8.540;2024-02-23T11:25:03;5.88;;;1.50;;
21860;SDS011;11095;48.066;8.540;2024-02-23T11:27:42;4.45;;;1.35;;
21860;SDS011;11095;48.066;8.540;2024-02-23T11:30:08;4.50;;;1.33;;
21860;SDS011;11095;48.066;8.540;2024-02-23T11:32:46;4.55;;;1.40;;
21860;SDS011;11095;48.066;8.540;2024-02-23T11:35:13;4.18;;;1.00;;
21860;SDS011;11095;48.066;8.540;2024-02-23T11:37:53;3.20;;;1.10;;
21860;SDS011;11095;48.066;8.540;2024-02-23T11:40:26;5.57;;;1.38;;
21860;SDS011;11095;48.066;8.540;2024-02-23T11:42:54;2.35;;;1.10;;
21860;SDS011;11095;48.066;8.540;2024-02-23T11:45:20;4.57;;;1.60;;
21860;SDS011;11095;48.066;8.540;2024-02-23T11:47:47;3.08;;;1.10;;
21860;SDS011;11095;48.066;8.540;2024-02-23T11:50:12;5.53;;;1.33;;
21860;SDS011;11095;48.066;8.540;2024-02-23T11:52:40;4.38;;;1.20;;
21860;SDS011;11095;48.066;8.540;2024-02-23T11:55:06;4.72;;;1.48;;
21860;SDS011;11095;48.066;8.540;2024-02-23T11:57:33;4.28;;;1.35;;
21860;SDS011;11095;48.066;8.540;2024-02-23T12:00:03;3.00;;;1.17;;
21860;SDS011;11095;48.066;8.540;2024-02-23T12:02:31;6.35;;;1.48;;
21860;SDS011;11095;48.066;8.540;2024-02-23T12:05:00;5.57;;;1.38;;
21860;SDS011;11095;48.066;8.540;2024-02-23T12:07:26;2.92;;;0.88;;
21860;SDS011;11095;48.066;8.540;2024-02-23T12:09:54;3.45;;;1.10;;
21860;SDS011;11095;48.066;8.540;2024-02-23T12:12:20;3.20;;;1.25;;
21860;SDS011;11095;48.066;8.540;2024-02-23T12:14:46;4.43;;;1.15;;
21860;SDS011;11095;48.066;8.540;2024-02-23T12:17:12;4.78;;;1.38;;
21860;SDS011;11095;48.066;8.540;2024-02-23T12:19:41;5.55;;;1.20;;
21860;SDS011;11095;48.066;8.540;2024-02-23T12:22:07;3.55;;;1.30;;
21860;SDS011;11095;48.066;8.540;2024-02-23T12:24:33;5.22;;;1.90;;
21860;SDS011;11095;48.066;8.540;2024-02-23T12:26:59;3.42;;;1.10;;
21860;SDS011;11095;48.066;8.540;2024-02-23T12:29:25;5.38;;;1.27;;
21860;SDS011;11095;48.066;8.540;2024-02-23T12:32:01;4.30;;;1.60;;
21860;SDS011;11095;48.066;8.540;2024-02-23T12:34:31;3.42;;;1.42;;
21860;SDS011;11095;48.066;8.540;2024-02-23T12:36:57;3.55;;;1.30;;
21860;SDS011;11095;48.066;8.540;2024-02-23T12:39:22;4.35;;;1.67;;
21860;SDS011;11095;48.066;8.540;2024-02-23T12:41:48;4.45;;;1.20;;
21860;SDS011;11095;48.066;8.540;2024-02-23T12:44:13;4.18;;;1.30;;
21860;SDS011;11095;48.066;8.540;2024-02-23T12:46:39;2.55;;;1.00;;
21860;SDS011;11095;48.066;8.540;2024-02-23T12:49:05;3.47;;;1.00;;
21860;SDS011;11095;48.066;8.540;2024-02-23T12:51:31;2.42;;;0.90;;
21860;SDS011;11095;48.066;8.540;2024-02-23T12:53:56;1.67;;;0.88;;
21860;SDS011;11095;48.066;8.540;2024-02-23T12:56:22;3.70;;;1.23;;
21860;SDS011;11095;48.066;8.540;2024-02-23T12:58:47;4.85;;;1.13;;
21860;SDS011;11095;48.066;8.540;2024-02-23T13:01:13;5.43;;;1.48;;
21860;SDS011;11095;48.066;8.540;2024-02-23T13:03:39;3.05;;;0.90;;
21860;SDS011;11095;48.066;8.540;2024-02-23T13:06:06;4.78;;;1.17;;
21860;SDS011;11095;48.066;8.540;2024-02-23T13:08:32;3.13;;;1.00;;
21860;SDS011;11095;48.066;8.540;2024-02-23T13:10:58;2.78;;;1.10;;
21860;SDS011;11095;48.066;8.540;2024-02-23T13:13:23;3.92;;;1.10;;
21860;SDS011;11095;48.066;8.540;2024-02-23T13:15:50;3.10;;;1.10;;
21860;SDS011;11095;48.066;8.540;2024-02-23T13:18:17;3.13;;;1.20;;
21860;SDS011;11095;48.066;8.540;2024-02-23T13:20:44;5.13;;;0.80;;
21860;SDS011;11095;48.066;8.540;2024-02-23T13:23:10;4.80;;;0.90;;
21860;SDS011;11095;48.066;8.540;2024-02-23T13:25:39;4.60;;;0.95;;
21860;SDS011;11095;48.066;8.540;2024-02-23T13:28:05;2.60;;;1.00;;
21860;SDS011;11095;48.066;8.540;2024-02-23T13:30:31;2.60;;;0.98;;
21860;SDS011;11095;48.066;8.540;2024-02-23T13:32:58;2.00;;;0.70;;
21860;SDS011;11095;48.066;8.540;2024-02-23T13:35:24;4.05;;;1.00;;
21860;SDS011;11095;48.066;8.540;2024-02-23T13:37:50;4.68;;;1.52;;
21860;SDS011;11095;48.066;8.540;2024-02-23T13:40:15;3.15;;;1.17;;
21860;SDS011;11095;48.066;8.540;2024-02-23T13:42:41;4.53;;;1.38;;
21860;SDS011;11095;48.066;8.540;2024-02-23T13:45:07;3.67;;;1.30;;
21860;SDS011;11095;48.066;8.540;2024-02-23T13:47:34;2.67;;;1.05;;
21860;SDS011;11095;48.066;8.540;2024-02-23T13:50:00;3.00;;;0.80;;
21860;SDS011;11095;48.066;8.540;2024-02-23T13:52:25;3.28;;;0.93;;
21860;SDS011;11095;48.066;8.540;2024-02-23T13:54:51;2.95;;;0.85;;
21860;SDS011;11095;48.066;8.540;2024-02-23T13:57:17;5.05;;;1.10;;
21860;SDS011;11095;48.066;8.540;2024-02-23T13:59:42;3.28;;;1.10;;
21860;SDS011;11095;48.066;8.540;2024-02-23T14:02:08;3.60;;;0.90;;
21860;SDS011;11095;48.066;8.540;2024-02-23T14:04:34;4.15;;;0.98;;
21860;SDS011;11095;48.066;8.540;2024-02-23T14:07:00;5.50;;;1.05;;
21860;SDS011;11095;48.066;8.540;2024-02-23T14:09:26;3.20;;;1.15;;
21860;SDS011;11095;48.066;8.540;2024-02-23T14:11:51;4.22;;;1.00;;
21860;SDS011;11095;48.066;8.540;2024-02-23T14:14:17;4.60;;;1.33;;
21860;SDS011;11095;48.066;8.540;2024-02-23T14:16:43;5.68;;;1.52;;
21860;SDS011;11095;48.066;8.540;2024-02-23T14:19:09;4.35;;;1.67;;
21860;SDS011;11095;48.066;8.540;2024-02-23T14:21:34;3.65;;;1.15;;
21860;SDS011;11095;48.066;8.540;2024-02-23T14:24:02;4.35;;;1.38;;
21860;SDS011;11095;48.066;8.540;2024-02-23T14:26:28;4.20;;;1.10;;
21860;SDS011;11095;48.066;8.540;2024-02-23T14:28:53;2.30;;;0.90;;
21860;SDS011;11095;48.066;8.540;2024-02-23T14:31:19;4.32;;;0.90;;
21860;SDS011;11095;48.066;8.540;2024-02-23T14:33:44;3.28;;;1.10;;
21860;SDS011;11095;48.066;8.540;2024-02-23T14:36:10;4.28;;;0.93;;
21860;SDS011;11095;48.066;8.540;2024-02-23T14:38:35;4.80;;;1.27;;
21860;SDS011;11095;48.066;8.540;2024-02-23T14:41:01;2.08;;;0.82;;
21860;SDS011;11095;48.066;8.540;2024-02-23T14:43:27;4.60;;;1.10;;
21860;SDS011;11095;48.066;8.540;2024-02-23T14:45:52;3.25;;;1.10;;
21860;SDS011;11095;48.066;8.540;2024-02-23T14:48:18;4.38;;;1.00;;
21860;SDS011;11095;48.066;8.540;2024-02-23T14:50:44;2.35;;;0.88;;